sensor_id;sensor_type;location;lat;lon;timestamp;P1;durP1;ratioP1;P2;durP2;ratioP2
151;SDS011;68;48.792;9.164;2023-02-03T00:02:07;2.58;;;2.30;;
151;SDS011;68;48.792;9.164;2023-02-03T00:04:33;3.22;;;2.50;;
151;SDS011;68;48.792;9.164;2023-02-03T00:07:00;2.60;;;2.40;;
151;SDS011;68;48.792;9.164;2023-02-03T00:09:28;2.70;;;2.50;;
151;SDS011;68;48.792;9.164;2023-02-03T00:11:55;2.70;;;2.30;;
151;SDS011;68;48.792;9.164;2023-02-03T00:14:22;3.03;;;2.30;;
151;SDS011;68;48.792;9.164;2023-02-03T00:16:49;3.45;;;2.33;;
151;SDS011;68;48.792;9.164;2023-02-03T00:19:15;3.65;;;2.40;;
151;SDS011;68;48.792;9.164;2023-02-03T00:21:42;2.30;;;2.10;;
151;SDS011;68;48.792;9.164;2023-02-03T00:24:09;2.70;;;2.20;;
151;SDS011;68;48.792;9.164;2023-02-03T00:26:40;2.78;;;2.20;;
151;SDS011;68;48.792;9.164;2023-02-03T00:29:08;2.30;;;2.10;;
151;SDS011;68;48.792;9.164;2023-02-03T00:31:35;2.67;;;2.30;;
151;SDS011;68;48.792;9.164;2023-02-03T00:34:02;2.20;;;1.90;;
151;SDS011;68;48.792;9.164;2023-02-03T00:36:29;2.90;;;2.03;;
151;SDS011;68;48.792;9.164;2023-02-03T00:38:55;3.15;;;2.03;;
151;SDS011;68;48.792;9.164;2023-02-03T00:41:22;2.20;;;2.00;;
151;SDS011;68;48.792;9.164;2023-02-03T00:43:55;2.67;;;2.05;;
151;SDS011;68;48.792;9.164;2023-02-03T00:46:22;2.83;;;2.30;;
151;SDS011;68;48.792;9.164;2023-02-03T00:48:49;2.67;;;2.55;;
151;SDS011;68;48.792;9.164;2023-02-03T00:51:16;4.05;;;1.98;;
151;SDS011;68;48.792;9.164;2023-02-03T00:53:42;2.45;;;1.90;;
151;SDS011;68;48.792;9.164;2023-02-03T00:56:09;3.20;;;2.10;;
151;SDS011;68;48.792;9.164;2023-02-03T00:58:37;2.20;;;2.00;;
151;SDS011;68;48.792;9.164;2023-02-03T01:01:05;2.30;;;2.10;;
151;SDS011;68;48.792;9.164;2023-02-03T01:03:33;2.40;;;2.25;;
151;SDS011;68;48.792;9.164;2023-02-03T01:06:07;2.40;;;2.20;;
151;SDS011;68;48.792;9.164;2023-02-03T01:08:35;2.33;;;2.20;;
151;SDS011;68;48.792;9.164;2023-02-03T01:11:04;2.67;;;2.20;;
151;SDS011;68;48.792;9.164;2023-02-03T01:13:31;2.50;;;2.30;;
151;SDS011;68;48.792;9.164;2023-02-03T01:15:58;2.20;;;2.00;;
151;SDS011;68;48.792;9.164;2023-02-03T01:18:26;2.70;;;2.50;;
151;SDS011;68;48.792;9.164;2023-02-03T01:20:53;2.50;;;2.30;;
151;SDS011;68;48.792;9.164;2023-02-03T01:23:20;2.47;;;2.28;;
151;SDS011;68;48.792;9.164;2023-02-03T01:25:46;4.25;;;2.47;;
151;SDS011;68;48.792;9.164;2023-02-03T01:28:13;2.50;;;2.30;;
151;SDS011;68;48.792;9.164;2023-02-03T01:30:40;3.25;;;2.35;;
151;SDS011;68;48.792;9.164;2023-02-03T01:33:07;2.38;;;2.17;;
151;SDS011;68;48.792;9.164;2023-02-03T01:35:35;2.30;;;2.10;;
151;SDS011;68;48.792;9.164;2023-02-03T01:38:01;3.40;;;2.42;;
151;SDS011;68;48.792;9.164;2023-02-03T01:40:28;3.78;;;2.78;;
151;SDS011;68;48.792;9.164;2023-02-03T01:42:55;2.97;;;2.30;;
151;SDS011;68;48.792;9.164;2023-02-03T01:45:22;3.42;;;2.20;;
151;SDS011;68;48.792;9.164;2023-02-03T01:47:49;4.63;;;2.72;;
151;SDS011;68;48.792;9.164;2023-02-03T01:50:20;2.92;;;2.63;;
151;SDS011;68;48.792;9.164;2023-02-03T01:52:52;2.88;;;2.60;;
151;SDS011;68;48.792;9.164;2023-02-03T01:55:23;4.00;;;2.78;;
151;SDS011;68;48.792;9.164;2023-02-03T01:57:55;2.85;;;2.40;;
151;SDS011;68;48.792;9.164;2023-02-03T02:00:24;3.15;;;2.70;;
151;SDS011;68;48.792;9.164;2023-02-03T02:02:51;2.53;;;2.33;;
151;SDS011;68;48.792;9.164;2023-02-03T02:05:21;2.63;;;2.50;;
151;SDS011;68;48.792;9.164;2023-02-03T02:07:54;2.88;;;2.50;;
151;SDS011;68;48.792;9.164;2023-02-03T02:10:23;3.15;;;2.85;;
151;SDS011;68;48.792;9.164;2023-02-03T02:12:50;2.78;;;2.60;;
151;SDS011;68;48.792;9.164;2023-02-03T02:15:20;4.57;;;2.80;;
151;SDS011;68;48.792;9.164;2023-02-03T02:18:01;3.47;;;2.70;;
151;SDS011;68;48.792;9.164;2023-02-03T02:20:56;4.07;;;3.08;;
151;SDS011;68;48.792;9.164;2023-02-03T02:24:19;4.95;;;2.63;;
151;SDS011;68;48.792;9.164;2023-02-03T02:27:08;3.97;;;3.05;;
151;SDS011;68;48.792;9.164;2023-02-03T02:32:48;4.93;;;2.50;;
151;SDS011;68;48.792;9.164;2023-02-03T02:35:30;4.82;;;3.00;;
151;SDS011;68;48.792;9.164;2023-02-03T02:38:11;3.20;;;3.00;;
151;SDS011;68;48.792;9.164;2023-02-03T02:40:47;4.05;;;2.50;;
151;SDS011;68;48.792;9.164;2023-02-03T02:43:18;3.42;;;3.22;;
151;SDS011;68;48.792;9.164;2023-02-03T02:45:50;4.53;;;2.85;;
151;SDS011;68;48.792;9.164;2023-02-03T02:48:22;3.00;;;2.80;;
151;SDS011;68;48.792;9.164;2023-02-03T02:50:54;4.00;;;2.95;;
151;SDS011;68;48.792;9.164;2023-02-03T02:53:24;5.15;;;3.00;;
151;SDS011;68;48.792;9.164;2023-02-03T02:55:53;7.80;;;2.90;;
151;SDS011;68;48.792;9.164;2023-02-03T02:58:21;2.80;;;2.70;;
151;SDS011;68;48.792;9.164;2023-02-03T03:00:49;3.30;;;3.10;;
151;SDS011;68;48.792;9.164;2023-02-03T03:03:17;3.70;;;3.13;;
151;SDS011;68;48.792;9.164;2023-02-03T03:05:47;3.17;;;2.70;;
151;SDS011;68;48.792;9.164;2023-02-03T03:08:18;4.72;;;3.00;;
151;SDS011;68;48.792;9.164;2023-02-03T03:10:48;3.00;;;2.80;;
151;SDS011;68;48.792;9.164;2023-02-03T03:13:17;5.50;;;2.80;;
151;SDS011;68;48.792;9.164;2023-02-03T03:15:49;3.25;;;2.75;;
151;SDS011;68;48.792;9.164;2023-02-03T03:18:18;2.50;;;2.30;;
151;SDS011;68;48.792;9.164;2023-02-03T03:20:52;3.50;;;2.90;;
151;SDS011;68;48.792;9.164;2023-02-03T03:23:23;2.83;;;2.63;;
151;SDS011;68;48.792;9.164;2023-02-03T03:25:53;3.45;;;2.88;;
151;SDS011;68;48.792;9.164;2023-02-03T03:28:26;3.13;;;2.80;;
151;SDS011;68;48.792;9.164;2023-02-03T03:30:58;3.95;;;2.83;;
151;SDS011;68;48.792;9.164;2023-02-03T03:33:25;4.15;;;2.50;;
151;SDS011;68;48.792;9.164;2023-02-03T03:35:55;2.60;;;2.40;;
151;SDS011;68;48.792;9.164;2023-02-03T03:38:27;3.30;;;2.30;;
151;SDS011;68;48.792;9.164;2023-02-03T03:41:04;3.90;;;2.50;;
151;SDS011;68;48.792;9.164;2023-02-03T03:43:34;5.72;;;2.53;;
151;SDS011;68;48.792;9.164;2023-02-03T03:46:06;4.35;;;2.70;;
151;SDS011;68;48.792;9.164;2023-02-03T03:48:39;3.58;;;2.75;;
151;SDS011;68;48.792;9.164;2023-02-03T03:51:14;3.58;;;2.60;;
151;SDS011;68;48.792;9.164;2023-02-03T03:53:44;2.95;;;2.47;;
151;SDS011;68;48.792;9.164;2023-02-03T03:56:14;2.45;;;2.20;;
151;SDS011;68;48.792;9.164;2023-02-03T03:58:45;3.17;;;2.30;;
151;SDS011;68;48.792;9.164;2023-02-03T04:01:15;4.20;;;2.35;;
151;SDS011;68;48.792;9.164;2023-02-03T04:03:43;3.97;;;2.17;;
151;SDS011;68;48.792;9.164;2023-02-03T04:06:12;2.85;;;2.22;;
151;SDS011;68;48.792;9.164;2023-02-03T04:08:40;2.28;;;2.13;;
151;SDS011;68;48.792;9.164;2023-02-03T04:11:07;2.45;;;2.20;;
151;SDS011;68;48.792;9.164;2023-02-03T04:13:34;2.90;;;2.30;;
151;SDS011;68;48.792;9.164;2023-02-03T04:16:00;2.42;;;2.22;;
151;SDS011;68;48.792;9.164;2023-02-03T04:18:27;2.53;;;2.20;;
151;SDS011;68;48.792;9.164;2023-02-03T04:20:54;4.95;;;2.40;;
151;SDS011;68;48.792;9.164;2023-02-03T04:23:22;2.25;;;2.00;;
151;SDS011;68;48.792;9.164;2023-02-03T04:25:49;1.98;;;1.88;;
151;SDS011;68;48.792;9.164;2023-02-03T04:28:16;2.28;;;2.10;;
151;SDS011;68;48.792;9.164;2023-02-03T04:30:42;2.97;;;2.28;;
151;SDS011;68;48.792;9.164;2023-02-03T04:33:09;2.17;;;2.00;;
151;SDS011;68;48.792;9.164;2023-02-03T04:35:36;3.03;;;2.13;;
151;SDS011;68;48.792;9.164;2023-02-03T04:38:03;2.38;;;2.00;;
151;SDS011;68;48.792;9.164;2023-02-03T04:40:31;2.10;;;2.00;;
151;SDS011;68;48.792;9.164;2023-02-03T04:42:57;2.20;;;2.00;;
151;SDS011;68;48.792;9.164;2023-02-03T04:45:30;3.67;;;1.90;;
151;SDS011;68;48.792;9.164;2023-02-03T04:47:57;2.88;;;2.00;;
151;SDS011;68;48.792;9.164;2023-02-03T04:50:23;3.25;;;2.10;;
151;SDS011;68;48.792;9.164;2023-02-03T04:52:50;1.92;;;1.88;;
151;SDS011;68;48.792;9.164;2023-02-03T04:55:17;2.28;;;2.15;;
151;SDS011;68;48.792;9.164;2023-02-03T04:57:45;2.10;;;1.95;;
151;SDS011;68;48.792;9.164;2023-02-03T05:00:12;2.83;;;2.13;;
151;SDS011;68;48.792;9.164;2023-02-03T05:02:39;2.25;;;2.05;;
151;SDS011;68;48.792;9.164;2023-02-03T05:05:06;1.90;;;1.80;;
151;SDS011;68;48.792;9.164;2023-02-03T05:07:33;2.40;;;2.20;;
151;SDS011;68;48.792;9.164;2023-02-03T05:10:00;1.98;;;1.92;;
151;SDS011;68;48.792;9.164;2023-02-03T05:12:26;2.50;;;2.28;;
151;SDS011;68;48.792;9.164;2023-02-03T05:14:55;1.90;;;1.80;;
151;SDS011;68;48.792;9.164;2023-02-03T05:17:21;1.92;;;1.90;;
151;SDS011;68;48.792;9.164;2023-02-03T05:19:49;2.58;;;2.00;;
151;SDS011;68;48.792;9.164;2023-02-03T05:22:16;2.55;;;1.98;;
151;SDS011;68;48.792;9.164;2023-02-03T05:24:42;3.88;;;2.00;;
151;SDS011;68;48.792;9.164;2023-02-03T05:27:09;2.47;;;2.33;;
151;SDS011;68;48.792;9.164;2023-02-03T05:29:36;2.53;;;2.13;;
151;SDS011;68;48.792;9.164;2023-02-03T05:32:04;2.92;;;2.38;;
151;SDS011;68;48.792;9.164;2023-02-03T05:34:31;2.70;;;2.58;;
151;SDS011;68;48.792;9.164;2023-02-03T05:36:58;2.50;;;2.30;;
151;SDS011;68;48.792;9.164;2023-02-03T05:39:24;2.83;;;2.63;;
151;SDS011;68;48.792;9.164;2023-02-03T05:41:51;2.33;;;2.20;;
151;SDS011;68;48.792;9.164;2023-02-03T05:44:17;2.83;;;2.40;;
151;SDS011;68;48.792;9.164;2023-02-03T05:46:44;3.47;;;2.28;;
151;SDS011;68;48.792;9.164;2023-02-03T05:49:12;3.08;;;2.35;;
151;SDS011;68;48.792;9.164;2023-02-03T05:51:39;4.18;;;2.70;;
151;SDS011;68;48.792;9.164;2023-02-03T05:54:07;5.07;;;2.75;;
151;SDS011;68;48.792;9.164;2023-02-03T05:56:34;2.63;;;2.42;;
151;SDS011;68;48.792;9.164;2023-02-03T05:59:01;5.38;;;2.42;;
151;SDS011;68;48.792;9.164;2023-02-03T06:01:28;2.45;;;2.25;;
151;SDS011;68;48.792;9.164;2023-02-03T06:03:54;2.38;;;2.20;;
151;SDS011;68;48.792;9.164;2023-02-03T06:06:23;3.60;;;2.50;;
151;SDS011;68;48.792;9.164;2023-02-03T06:08:51;2.80;;;2.15;;
151;SDS011;68;48.792;9.164;2023-02-03T06:11:21;3.30;;;2.70;;
151;SDS011;68;48.792;9.164;2023-02-03T06:13:48;3.08;;;2.63;;
151;SDS011;68;48.792;9.164;2023-02-03T06:16:15;2.50;;;2.30;;
151;SDS011;68;48.792;9.164;2023-02-03T06:18:42;2.72;;;2.53;;
151;SDS011;68;48.792;9.164;2023-02-03T06:21:09;4.97;;;2.60;;
151;SDS011;68;48.792;9.164;2023-02-03T06:23:37;2.63;;;2.42;;
151;SDS011;68;48.792;9.164;2023-02-03T06:26:04;2.70;;;2.50;;
151;SDS011;68;48.792;9.164;2023-02-03T06:28:30;2.85;;;2.65;;
151;SDS011;68;48.792;9.164;2023-02-03T06:30:58;7.57;;;3.72;;
151;SDS011;68;48.792;9.164;2023-02-03T06:33:24;6.53;;;4.03;;
151;SDS011;68;48.792;9.164;2023-02-03T06:35:52;3.85;;;2.47;;
151;SDS011;68;48.792;9.164;2023-02-03T06:38:19;4.05;;;2.58;;
151;SDS011;68;48.792;9.164;2023-02-03T06:40:47;3.00;;;2.80;;
151;SDS011;68;48.792;9.164;2023-02-03T06:43:14;2.70;;;2.22;;
151;SDS011;68;48.792;9.164;2023-02-03T06:45:43;2.50;;;2.30;;
151;SDS011;68;48.792;9.164;2023-02-03T06:48:11;2.80;;;2.65;;
151;SDS011;68;48.792;9.164;2023-02-03T06:50:38;3.55;;;2.40;;
151;SDS011;68;48.792;9.164;2023-02-03T06:53:05;3.20;;;2.83;;
151;SDS011;68;48.792;9.164;2023-02-03T06:55:32;2.70;;;2.50;;
151;SDS011;68;48.792;9.164;2023-02-03T06:58:00;3.47;;;2.97;;
151;SDS011;68;48.792;9.164;2023-02-03T07:00:27;6.63;;;2.60;;
151;SDS011;68;48.792;9.164;2023-02-03T07:02:54;3.53;;;2.70;;
151;SDS011;68;48.792;9.164;2023-02-03T07:05:22;2.72;;;2.60;;
151;SDS011;68;48.792;9.164;2023-02-03T07:07:49;4.13;;;2.70;;
151;SDS011;68;48.792;9.164;2023-02-03T07:10:16;4.15;;;2.75;;
151;SDS011;68;48.792;9.164;2023-02-03T07:12:43;4.95;;;3.45;;
151;SDS011;68;48.792;9.164;2023-02-03T07:15:12;9.85;;;3.45;;
151;SDS011;68;48.792;9.164;2023-02-03T07:17:38;4.15;;;2.92;;
151;SDS011;68;48.792;9.164;2023-02-03T07:20:05;3.22;;;2.85;;
151;SDS011;68;48.792;9.164;2023-02-03T07:22:33;3.90;;;3.30;;
151;SDS011;68;48.792;9.164;2023-02-03T07:25:00;7.40;;;4.45;;
151;SDS011;68;48.792;9.164;2023-02-03T07:27:27;4.53;;;3.20;;
151;SDS011;68;48.792;9.164;2023-02-03T07:29:53;3.72;;;2.88;;
151;SDS011;68;48.792;9.164;2023-02-03T07:32:21;3.55;;;2.90;;
151;SDS011;68;48.792;9.164;2023-02-03T07:34:48;4.78;;;3.25;;
151;SDS011;68;48.792;9.164;2023-02-03T07:37:15;3.90;;;2.95;;
151;SDS011;68;48.792;9.164;2023-02-03T07:39:42;3.85;;;3.30;;
151;SDS011;68;48.792;9.164;2023-02-03T07:42:10;4.60;;;2.90;;
151;SDS011;68;48.792;9.164;2023-02-03T07:44:36;4.00;;;3.13;;
151;SDS011;68;48.792;9.164;2023-02-03T07:47:03;3.25;;;2.72;;
151;SDS011;68;48.792;9.164;2023-02-03T07:49:31;4.03;;;2.75;;
151;SDS011;68;48.792;9.164;2023-02-03T07:51:58;10.15;;;3.30;;
151;SDS011;68;48.792;9.164;2023-02-03T07:54:25;3.60;;;3.15;;
151;SDS011;68;48.792;9.164;2023-02-03T07:56:52;5.32;;;3.70;;
151;SDS011;68;48.792;9.164;2023-02-03T07:59:19;4.20;;;3.20;;
151;SDS011;68;48.792;9.164;2023-02-03T08:01:46;3.53;;;3.05;;
151;SDS011;68;48.792;9.164;2023-02-03T08:04:12;8.25;;;3.42;;
151;SDS011;68;48.792;9.164;2023-02-03T08:06:42;7.63;;;3.40;;
151;SDS011;68;48.792;9.164;2023-02-03T08:09:09;4.75;;;3.88;;
151;SDS011;68;48.792;9.164;2023-02-03T08:11:35;7.07;;;3.92;;
151;SDS011;68;48.792;9.164;2023-02-03T08:14:02;6.65;;;4.05;;
151;SDS011;68;48.792;9.164;2023-02-03T08:16:29;6.18;;;3.47;;
151;SDS011;68;48.792;9.164;2023-02-03T08:18:56;5.50;;;4.05;;
151;SDS011;68;48.792;9.164;2023-02-03T08:21:22;6.13;;;3.63;;
151;SDS011;68;48.792;9.164;2023-02-03T08:23:50;7.93;;;4.20;;
151;SDS011;68;48.792;9.164;2023-02-03T08:26:17;5.00;;;4.25;;
151;SDS011;68;48.792;9.164;2023-02-03T08:28:46;7.57;;;4.28;;
151;SDS011;68;48.792;9.164;2023-02-03T08:31:13;4.78;;;3.95;;
151;SDS011;68;48.792;9.164;2023-02-03T08:33:41;4.10;;;3.72;;
151;SDS011;68;48.792;9.164;2023-02-03T08:36:08;8.00;;;4.25;;
151;SDS011;68;48.792;9.164;2023-02-03T08:38:35;7.40;;;4.20;;
151;SDS011;68;48.792;9.164;2023-02-03T08:41:08;11.07;;;4.50;;
151;SDS011;68;48.792;9.164;2023-02-03T08:43:35;12.95;;;6.70;;
151;SDS011;68;48.792;9.164;2023-02-03T08:46:02;8.65;;;4.90;;
151;SDS011;68;48.792;9.164;2023-02-03T08:48:29;6.38;;;4.35;;
151;SDS011;68;48.792;9.164;2023-02-03T08:50:56;8.10;;;4.75;;
151;SDS011;68;48.792;9.164;2023-02-03T08:53:23;8.20;;;4.85;;
151;SDS011;68;48.792;9.164;2023-02-03T08:55:50;10.77;;;4.85;;
151;SDS011;68;48.792;9.164;2023-02-03T08:58:18;5.55;;;4.38;;
151;SDS011;68;48.792;9.164;2023-02-03T09:00:45;6.20;;;4.68;;
151;SDS011;68;48.792;9.164;2023-02-03T09:03:13;7.95;;;4.43;;
151;SDS011;68;48.792;9.164;2023-02-03T09:05:40;9.88;;;4.75;;
151;SDS011;68;48.792;9.164;2023-02-03T09:08:07;8.93;;;4.35;;
151;SDS011;68;48.792;9.164;2023-02-03T09:10:34;6.45;;;5.07;;
151;SDS011;68;48.792;9.164;2023-02-03T09:13:01;12.00;;;4.75;;
151;SDS011;68;48.792;9.164;2023-02-03T09:15:29;5.55;;;4.68;;
151;SDS011;68;48.792;9.164;2023-02-03T09:17:56;6.13;;;4.22;;
151;SDS011;68;48.792;9.164;2023-02-03T09:20:23;5.05;;;4.50;;
151;SDS011;68;48.792;9.164;2023-02-03T09:22:50;8.20;;;4.80;;
151;SDS011;68;48.792;9.164;2023-02-03T09:25:18;5.18;;;4.45;;
151;SDS011;68;48.792;9.164;2023-02-03T09:27:45;11.00;;;5.25;;
151;SDS011;68;48.792;9.164;2023-02-03T09:30:12;8.02;;;4.40;;
151;SDS011;68;48.792;9.164;2023-02-03T09:32:41;6.30;;;4.90;;
151;SDS011;68;48.792;9.164;2023-02-03T09:35:07;7.57;;;4.40;;
151;SDS011;68;48.792;9.164;2023-02-03T09:37:34;6.97;;;4.30;;
151;SDS011;68;48.792;9.164;2023-02-03T09:40:01;6.43;;;3.90;;
151;SDS011;68;48.792;9.164;2023-02-03T09:42:35;4.30;;;3.80;;
151;SDS011;68;48.792;9.164;2023-02-03T09:45:21;6.10;;;4.22;;
151;SDS011;68;48.792;9.164;2023-02-03T09:47:52;6.35;;;4.00;;
151;SDS011;68;48.792;9.164;2023-02-03T09:50:23;6.43;;;3.97;;
151;SDS011;68;48.792;9.164;2023-02-03T09:52:53;7.18;;;3.75;;
151;SDS011;68;48.792;9.164;2023-02-03T09:55:25;4.95;;;3.78;;
151;SDS011;68;48.792;9.164;2023-02-03T09:57:57;11.68;;;4.43;;
151;SDS011;68;48.792;9.164;2023-02-03T10:00:29;7.82;;;3.75;;
151;SDS011;68;48.792;9.164;2023-02-03T10:03:02;6.18;;;4.18;;
151;SDS011;68;48.792;9.164;2023-02-03T10:05:48;8.10;;;3.85;;
151;SDS011;68;48.792;9.164;2023-02-03T10:08:35;5.88;;;3.83;;
151;SDS011;68;48.792;9.164;2023-02-03T10:11:21;5.13;;;3.50;;
151;SDS011;68;48.792;9.164;2023-02-03T10:14:01;6.93;;;3.60;;
151;SDS011;68;48.792;9.164;2023-02-03T10:16:38;5.95;;;3.30;;
151;SDS011;68;48.792;9.164;2023-02-03T10:19:16;3.88;;;3.20;;
151;SDS011;68;48.792;9.164;2023-02-03T10:21:47;5.00;;;3.38;;
151;SDS011;68;48.792;9.164;2023-02-03T10:24:20;3.63;;;2.80;;
151;SDS011;68;48.792;9.164;2023-02-03T10:26:54;4.68;;;3.00;;
151;SDS011;68;48.792;9.164;2023-02-03T10:29:23;2.83;;;2.50;;
151;SDS011;68;48.792;9.164;2023-02-03T10:31:57;2.60;;;2.40;;
151;SDS011;68;48.792;9.164;2023-02-03T10:34:25;4.88;;;2.80;;
151;SDS011;68;48.792;9.164;2023-02-03T10:36:53;3.22;;;2.50;;
151;SDS011;68;48.792;9.164;2023-02-03T10:39:29;3.53;;;2.60;;
151;SDS011;68;48.792;9.164;2023-02-03T10:41:58;3.10;;;2.80;;
151;SDS011;68;48.792;9.164;2023-02-03T10:44:29;2.95;;;2.33;;
151;SDS011;68;48.792;9.164;2023-02-03T10:47:00;3.03;;;2.28;;
151;SDS011;68;48.792;9.164;2023-02-03T10:49:28;4.90;;;2.47;;
151;SDS011;68;48.792;9.164;2023-02-03T10:51:56;3.50;;;2.10;;
151;SDS011;68;48.792;9.164;2023-02-03T10:54:28;2.50;;;2.30;;
151;SDS011;68;48.792;9.164;2023-02-03T10:57:03;5.60;;;2.25;;
151;SDS011;68;48.792;9.164;2023-02-03T10:59:35;3.00;;;2.30;;
151;SDS011;68;48.792;9.164;2023-02-03T11:02:07;2.97;;;2.10;;
151;SDS011;68;48.792;9.164;2023-02-03T11:04:37;2.78;;;2.05;;
151;SDS011;68;48.792;9.164;2023-02-03T11:07:04;1.95;;;1.90;;
151;SDS011;68;48.792;9.164;2023-02-03T11:09:34;2.35;;;1.90;;
151;SDS011;68;48.792;9.164;2023-02-03T11:12:06;2.00;;;1.90;;
151;SDS011;68;48.792;9.164;2023-02-03T11:14:38;2.00;;;1.80;;
151;SDS011;68;48.792;9.164;2023-02-03T11:17:08;2.00;;;1.90;;
151;SDS011;68;48.792;9.164;2023-02-03T11:19:42;2.45;;;1.80;;
151;SDS011;68;48.792;9.164;2023-02-03T11:22:11;2.00;;;1.90;;
151;SDS011;68;48.792;9.164;2023-02-03T11:24:39;1.90;;;1.80;;
151;SDS011;68;48.792;9.164;2023-02-03T11:27:09;2.17;;;1.83;;
151;SDS011;68;48.792;9.164;2023-02-03T11:29:39;1.92;;;1.83;;
151;SDS011;68;48.792;9.164;2023-02-03T11:32:14;1.80;;;1.70;;
151;SDS011;68;48.792;9.164;2023-02-03T11:34:46;2.20;;;1.80;;
151;SDS011;68;48.792;9.164;2023-02-03T11:37:27;2.13;;;1.88;;
151;SDS011;68;48.792;9.164;2023-02-03T11:40:11;2.25;;;1.95;;
151;SDS011;68;48.792;9.164;2023-02-03T11:42:57;2.15;;;2.00;;
151;SDS011;68;48.792;9.164;2023-02-03T11:45:26;1.75;;;1.75;;
151;SDS011;68;48.792;9.164;2023-02-03T11:47:55;2.40;;;1.85;;
151;SDS011;68;48.792;9.164;2023-02-03T11:50:28;4.80;;;1.90;;
151;SDS011;68;48.792;9.164;2023-02-03T11:55:53;2.40;;;1.80;;
151;SDS011;68;48.792;9.164;2023-02-03T12:01:38;1.80;;;1.70;;
151;SDS011;68;48.792;9.164;2023-02-03T12:04:17;3.05;;;1.85;;
151;SDS011;68;48.792;9.164;2023-02-03T12:07:07;1.92;;;1.70;;
151;SDS011;68;48.792;9.164;2023-02-03T12:09:56;3.90;;;1.88;;
151;SDS011;68;48.792;9.164;2023-02-03T12:12:32;2.28;;;1.80;;
151;SDS011;68;48.792;9.164;2023-02-03T12:15:17;2.17;;;2.00;;
151;SDS011;68;48.792;9.164;2023-02-03T12:17:53;2.97;;;1.90;;
151;SDS011;68;48.792;9.164;2023-02-03T12:20:36;2.20;;;1.83;;
151;SDS011;68;48.792;9.164;2023-02-03T12:23:19;1.88;;;1.77;;
151;SDS011;68;48.792;9.164;2023-02-03T12:25:57;1.77;;;1.67;;
151;SDS011;68;48.792;9.164;2023-02-03T12:28:34;1.85;;;1.80;;
151;SDS011;68;48.792;9.164;2023-02-03T12:31:17;2.47;;;1.77;;
151;SDS011;68;48.792;9.164;2023-02-03T12:33:55;3.15;;;2.10;;
151;SDS011;68;48.792;9.164;2023-02-03T12:36:27;1.85;;;1.70;;
151;SDS011;68;48.792;9.164;2023-02-03T12:39:00;1.80;;;1.70;;
151;SDS011;68;48.792;9.164;2023-02-03T12:41:33;1.80;;;1.70;;
151;SDS011;68;48.792;9.164;2023-02-03T12:44:03;2.20;;;1.75;;
151;SDS011;68;48.792;9.164;2023-02-03T12:46:34;1.80;;;1.70;;
151;SDS011;68;48.792;9.164;2023-02-03T12:49:09;1.80;;;1.70;;
151;SDS011;68;48.792;9.164;2023-02-03T12:51:41;2.25;;;2.10;;
151;SDS011;68;48.792;9.164;2023-02-03T12:54:18;2.20;;;2.00;;
151;SDS011;68;48.792;9.164;2023-02-03T12:56:54;1.80;;;1.70;;
151;SDS011;68;48.792;9.164;2023-02-03T12:59:31;1.95;;;1.85;;
151;SDS011;68;48.792;9.164;2023-02-03T13:01:59;4.15;;;2.00;;
151;SDS011;68;48.792;9.164;2023-02-03T13:04:31;2.22;;;2.03;;
151;SDS011;68;48.792;9.164;2023-02-03T13:07:03;1.85;;;1.77;;
151;SDS011;68;48.792;9.164;2023-02-03T13:09:39;2.15;;;2.00;;
151;SDS011;68;48.792;9.164;2023-02-03T13:12:14;1.92;;;1.88;;
151;SDS011;68;48.792;9.164;2023-02-03T13:14:49;2.58;;;1.80;;
151;SDS011;68;48.792;9.164;2023-02-03T13:17:23;1.83;;;1.73;;
151;SDS011;68;48.792;9.164;2023-02-03T13:19:53;3.13;;;2.10;;
151;SDS011;68;48.792;9.164;2023-02-03T13:22:23;2.92;;;2.55;;
151;SDS011;68;48.792;9.164;2023-02-03T13:24:53;2.20;;;2.00;;
151;SDS011;68;48.792;9.164;2023-02-03T13:27:30;1.85;;;1.80;;
151;SDS011;68;48.792;9.164;2023-02-03T13:30:14;1.80;;;1.70;;
151;SDS011;68;48.792;9.164;2023-02-03T13:33:12;6.15;;;1.90;;
151;SDS011;68;48.792;9.164;2023-02-03T13:36:00;2.25;;;2.10;;
151;SDS011;68;48.792;9.164;2023-02-03T13:38:40;2.20;;;1.98;;
151;SDS011;68;48.792;9.164;2023-02-03T13:41:24;3.35;;;2.40;;
151;SDS011;68;48.792;9.164;2023-02-03T13:43:57;1.83;;;1.73;;
151;SDS011;68;48.792;9.164;2023-02-03T13:46:25;1.83;;;1.80;;
151;SDS011;68;48.792;9.164;2023-02-03T13:48:55;2.15;;;1.98;;
151;SDS011;68;48.792;9.164;2023-02-03T13:51:24;2.20;;;2.00;;
151;SDS011;68;48.792;9.164;2023-02-03T13:53:59;2.10;;;1.95;;
151;SDS011;68;48.792;9.164;2023-02-03T13:56:29;3.88;;;1.90;;
151;SDS011;68;48.792;9.164;2023-02-03T13:58:58;5.00;;;2.00;;
151;SDS011;68;48.792;9.164;2023-02-03T14:01:34;2.00;;;1.90;;
151;SDS011;68;48.792;9.164;2023-02-03T14:04:03;2.22;;;2.10;;
151;SDS011;68;48.792;9.164;2023-02-03T14:09:34;2.00;;;1.90;;
151;SDS011;68;48.792;9.164;2023-02-03T14:14:57;1.88;;;1.77;;
151;SDS011;68;48.792;9.164;2023-02-03T14:23:19;1.90;;;1.80;;
151;SDS011;68;48.792;9.164;2023-02-03T14:25:53;2.85;;;2.05;;
151;SDS011;68;48.792;9.164;2023-02-03T14:28:24;2.80;;;1.90;;
151;SDS011;68;48.792;9.164;2023-02-03T14:31:08;1.90;;;1.80;;
151;SDS011;68;48.792;9.164;2023-02-03T14:33:44;1.98;;;1.88;;
151;SDS011;68;48.792;9.164;2023-02-03T14:36:31;1.63;;;1.52;;
151;SDS011;68;48.792;9.164;2023-02-03T14:39:02;2.92;;;1.90;;
151;SDS011;68;48.792;9.164;2023-02-03T14:41:47;2.65;;;1.60;;
151;SDS011;68;48.792;9.164;2023-02-03T14:44:25;2.20;;;1.80;;
151;SDS011;68;48.792;9.164;2023-02-03T14:47:04;1.98;;;1.85;;
151;SDS011;68;48.792;9.164;2023-02-03T14:49:46;1.65;;;1.60;;
151;SDS011;68;48.792;9.164;2023-02-03T14:52:37;2.80;;;1.90;;
151;SDS011;68;48.792;9.164;2023-02-03T14:55:22;1.80;;;1.70;;
151;SDS011;68;48.792;9.164;2023-02-03T14:57:59;2.20;;;2.00;;
151;SDS011;68;48.792;9.164;2023-02-03T15:00:30;3.90;;;1.90;;
151;SDS011;68;48.792;9.164;2023-02-03T15:05:49;2.00;;;1.70;;
151;SDS011;68;48.792;9.164;2023-02-03T15:08:34;1.85;;;1.80;;
151;SDS011;68;48.792;9.164;2023-02-03T15:11:14;1.75;;;1.70;;
151;SDS011;68;48.792;9.164;2023-02-03T15:13:52;1.83;;;1.73;;
151;SDS011;68;48.792;9.164;2023-02-03T15:16:21;1.90;;;1.80;;
151;SDS011;68;48.792;9.164;2023-02-03T15:18:53;1.67;;;1.58;;
151;SDS011;68;48.792;9.164;2023-02-03T15:21:22;1.90;;;1.80;;
151;SDS011;68;48.792;9.164;2023-02-03T15:23:50;1.80;;;1.70;;
151;SDS011;68;48.792;9.164;2023-02-03T15:26:18;1.80;;;1.70;;
151;SDS011;68;48.792;9.164;2023-02-03T15:28:54;3.10;;;1.80;;
151;SDS011;68;48.792;9.164;2023-02-03T15:31:24;3.75;;;2.20;;
151;SDS011;68;48.792;9.164;2023-02-03T15:33:58;1.83;;;1.80;;
151;SDS011;68;48.792;9.164;2023-02-03T15:36:31;2.20;;;1.80;;
151;SDS011;68;48.792;9.164;2023-02-03T15:39:05;1.83;;;1.73;;
151;SDS011;68;48.792;9.164;2023-02-03T15:41:39;1.80;;;1.70;;
151;SDS011;68;48.792;9.164;2023-02-03T15:44:07;1.83;;;1.73;;
151;SDS011;68;48.792;9.164;2023-02-03T15:46:43;2.40;;;2.10;;
151;SDS011;68;48.792;9.164;2023-02-03T15:49:16;1.70;;;1.70;;
151;SDS011;68;48.792;9.164;2023-02-03T15:51:47;2.15;;;1.80;;
151;SDS011;68;48.792;9.164;2023-02-03T15:54:17;1.85;;;1.60;;
151;SDS011;68;48.792;9.164;2023-02-03T15:56:48;1.88;;;1.80;;
151;SDS011;68;48.792;9.164;2023-02-03T15:59:22;1.88;;;1.77;;
151;SDS011;68;48.792;9.164;2023-02-03T16:01:53;1.70;;;1.60;;
151;SDS011;68;48.792;9.164;2023-02-03T16:04:20;1.80;;;1.70;;
151;SDS011;68;48.792;9.164;2023-02-03T16:06:49;1.60;;;1.60;;
151;SDS011;68;48.792;9.164;2023-02-03T16:09:28;2.22;;;1.80;;
151;SDS011;68;48.792;9.164;2023-02-03T16:12:03;2.10;;;1.95;;
151;SDS011;68;48.792;9.164;2023-02-03T16:14:39;2.20;;;2.00;;
151;SDS011;68;48.792;9.164;2023-02-03T16:17:14;2.80;;;1.85;;
151;SDS011;68;48.792;9.164;2023-02-03T16:19:48;1.90;;;1.80;;
151;SDS011;68;48.792;9.164;2023-02-03T16:22:26;2.10;;;1.70;;
151;SDS011;68;48.792;9.164;2023-02-03T16:24:54;2.05;;;1.90;;
151;SDS011;68;48.792;9.164;2023-02-03T16:27:31;2.20;;;2.00;;
151;SDS011;68;48.792;9.164;2023-02-03T16:33:11;2.35;;;2.00;;
151;SDS011;68;48.792;9.164;2023-02-03T16:35:57;5.20;;;3.97;;
151;SDS011;68;48.792;9.164;2023-02-03T16:38:44;3.75;;;2.40;;
151;SDS011;68;48.792;9.164;2023-02-03T16:41:29;2.40;;;2.20;;
151;SDS011;68;48.792;9.164;2023-02-03T16:44:14;2.00;;;1.90;;
151;SDS011;68;48.792;9.164;2023-02-03T16:46:58;2.00;;;1.90;;
151;SDS011;68;48.792;9.164;2023-02-03T16:49:44;2.17;;;2.00;;
151;SDS011;68;48.792;9.164;2023-02-03T16:52:28;2.25;;;2.05;;